Time;durP1;ratioP1;P1;durP2;ratioP2;P2;SDS_P1;SDS_P2;PMS_P1;PMS_P2;Temp;Humidity;BMP_temperature;BMP_pressure;BME280_temperature;BME280_humidity;BME280_pressure;Samples;Min_cycle;Max_cycle;Signal;HPM_P1;HPM_P2
2023/05/22 00:00:47;;;;;;;;;;;19.20;99.90;;;;;;5099442;27;20496;-79
2023/05/22 00:03:13;;;;;;;35.65;24.63;;;19.10;99.90;;;;;;5102642;28;20318;-80
2023/05/22 00:05:39;;;;;;;;;;;19.00;99.90;;;;;;5121574;27;20048;-80
2023/05/22 00:08:10;;;;;;;34.50;24.15;;;19.00;99.90;;;;;;5075141;28;19920;-80
2023/05/22 00:10:39;;;;;;;35.08;24.38;;;18.90;99.90;;;;;;5110769;28;20393;-79
2023/05/22 00:13:05;;;;;;;40.45;24.52;;;18.90;99.90;;;;;;5110111;28;20051;-80
2023/05/22 00:15:32;;;;;;;;;;;18.90;99.90;;;;;;5110280;28;20401;-80
2023/05/22 00:17:58;;;;;;;41.00;25.20;;;18.90;99.90;;;;;;5126651;27;19930;-79
2023/05/22 00:20:25;;;;;;;40.92;25.45;;;19.00;99.90;;;;;;5113895;27;20044;-80
2023/05/22 00:22:50;;;;;;;39.50;24.17;;;19.00;99.90;;;;;;5093658;28;20079;-79
2023/05/22 00:25:19;;;;;;;;;;;19.00;99.90;;;;;;5124884;27;20094;-80
2023/05/22 00:27:46;;;;;;;38.50;23.30;;;19.00;99.90;;;;;;5120970;27;19926;-80
2023/05/22 00:30:12;;;;;;;37.10;24.67;;;19.10;99.90;;;;;;5124337;27;20040;-80
2023/05/22 00:32:38;;;;;;;;;;;19.00;99.90;;;;;;5088233;28;20130;-80
2023/05/22 00:35:05;;;;;;;33.35;23.83;;;19.00;99.90;;;;;;5094280;28;20073;-80
2023/05/22 00:37:31;;;;;;;38.05;23.35;;;19.00;99.90;;;;;;5111506;28;20557;-80
2023/05/22 00:39:56;;;;;;;;;;;19.00;99.90;;;;;;5108165;28;20086;-80
2023/05/22 00:42:22;;;;;;;34.90;22.95;;;19.10;99.90;;;;;;5108012;28;20015;-80
2023/05/22 00:44:48;;;;;;;;;;;19.00;99.90;;;;;;5137132;27;20047;-80
2023/05/22 00:47:14;;;;;;;35.40;23.00;;;19.00;99.90;;;;;;5097521;28;19924;-80
2023/05/22 00:49:40;;;;;;;;;;;19.00;99.90;;;;;;5095135;28;20051;-80
2023/05/22 00:52:07;;;;;;;34.25;22.85;;;19.00;99.90;;;;;;5110730;28;19923;-80
2023/05/22 00:54:33;;;;;;;36.00;24.58;;;19.00;99.90;;;;;;5097785;28;20052;-80
2023/05/22 00:57:00;;;;;;;;;;;19.00;99.90;;;;;;5111350;28;20047;-81
2023/05/22 00:59:26;;;;;;;33.97;23.63;;;18.90;99.90;;;;;;5127023;27;19919;-81
2023/05/22 01:01:53;;;;;;;37.60;24.63;;;18.90;99.90;;;;;;5093560;28;20055;-79
2023/05/22 01:04:19;;;;;;;39.05;25.30;;;18.90;99.90;;;;;;5110876;28;20051;-81
2023/05/22 01:06:46;;;;;;;;;;;18.90;99.90;;;;;;5127033;27;20044;-81
2023/05/22 01:09:13;;;;;;;33.78;23.50;;;18.90;99.90;;;;;;5110599;28;20717;-80
2023/05/22 01:12:05;;;;;;;37.65;23.80;;;18.90;99.90;;;;;;5103966;28;20067;-81
2023/05/22 01:14:59;;;;;;;37.15;23.85;;;18.90;99.90;;;;;;5106876;28;20108;-81
2023/05/22 01:17:51;;;;;;;37.47;23.83;;;18.90;99.90;;;;;;5063759;28;20098;-81
2023/05/22 01:20:29;;;;;;;39.25;24.52;;;18.90;99.90;;;;;;5090269;28;20073;-81
2023/05/22 01:23:16;;;;;;;38.10;24.20;;;18.80;99.90;;;;;;5128046;27;20051;-79
2023/05/22 01:26:02;;;;;;;38.22;24.25;;;18.90;99.90;;;;;;5111048;28;20043;-80
2023/05/22 01:28:51;;;;;;;34.83;22.80;;;18.80;99.90;;;;;;5135072;27;20105;-81
2023/05/22 01:31:20;;;;;;;36.25;24.10;;;18.80;99.90;;;;;;5078051;28;20068;-81
2023/05/22 01:33:50;;;;;;;37.70;24.83;;;18.80;99.90;;;;;;5104370;28;20044;-80
2023/05/22 01:36:21;;;;;;;36.55;24.75;;;18.70;99.90;;;;;;5123655;27;20480;-81
2023/05/22 01:38:48;;;;;;;34.38;23.67;;;18.70;99.90;;;;;;5090385;28;20051;-80
2023/05/22 01:41:15;;;;;;;36.10;24.95;;;18.70;99.90;;;;;;5107116;28;20056;-81
2023/05/22 01:43:42;;;;;;;40.33;25.73;;;18.70;99.90;;;;;;5089957;28;20098;-80
2023/05/22 01:46:07;;;;;;;35.60;24.20;;;18.70;99.90;;;;;;5106351;28;20520;-80
2023/05/22 01:48:34;;;;;;;;;;;18.60;99.90;;;;;;5109633;28;20047;-80
2023/05/22 01:51:10;;;;;;;36.65;24.08;;;18.50;99.90;;;;;;5143728;27;19923;-80
2023/05/22 01:53:47;;;;;;;36.35;24.65;;;18.40;99.90;;;;;;5124459;27;20079;-80
2023/05/22 01:56:19;;;;;;;39.08;25.08;;;18.40;99.90;;;;;;5089841;28;20063;-80
2023/05/22 01:59:09;;;;;;;40.78;24.13;;;18.40;99.90;;;;;;5123675;27;20058;-80
2023/05/22 02:01:37;;;;;;;38.50;25.10;;;18.40;99.90;;;;;;5093089;28;20062;-80
2023/05/22 02:04:04;;;;;;;36.22;24.25;;;18.40;99.90;;;;;;5126731;27;20048;-80
2023/05/22 02:06:32;;;;;;;44.55;25.42;;;18.40;99.90;;;;;;5127130;27;20047;-81
2023/05/22 02:09:00;;;;;;;41.17;26.08;;;18.40;99.90;;;;;;5108230;28;20130;-79
2023/05/22 02:11:28;;;;;;;37.00;25.50;;;18.40;99.90;;;;;;5123860;27;20040;-80
2023/05/22 02:13:55;;;;;;;36.85;25.08;;;18.40;99.90;;;;;;5122529;27;20130;-80
2023/05/22 02:16:21;;;;;;;42.03;25.20;;;18.40;99.90;;;;;;5089360;28;20051;-80
2023/05/22 02:18:47;;;;;;;35.30;24.33;;;18.40;99.90;;;;;;5072476;28;20409;-80
2023/05/22 02:21:13;;;;;;;;;;;18.40;99.90;;;;;;5075197;28;20044;-81
2023/05/22 02:23:39;;;;;;;35.85;24.45;;;18.40;99.90;;;;;;5093101;28;19926;-81
2023/05/22 02:26:05;;;;;;;35.50;24.85;;;18.40;99.90;;;;;;5109819;28;20048;-80
2023/05/22 02:28:32;;;;;;;37.22;24.25;;;18.40;99.90;;;;;;5092194;28;20043;-81
2023/05/22 02:30:58;;;;;;;35.28;23.48;;;18.40;99.90;;;;;;5092281;28;20538;-79
2023/05/22 02:33:23;;;;;;;;;;;18.40;99.90;;;;;;5109830;28;20048;-80
2023/05/22 02:35:49;;;;;;;34.80;22.33;;;18.40;99.90;;;;;;5109753;28;19919;-81
2023/05/22 02:38:15;;;;;;;;;;;18.40;99.90;;;;;;5125923;28;20039;-80
2023/05/22 02:40:40;;;;;;;37.85;24.00;;;18.40;99.90;;;;;;5110127;28;20004;-81
2023/05/22 02:43:06;;;;;;;;;;;18.30;99.90;;;;;;5109992;28;20188;-80
2023/05/22 02:45:32;;;;;;;33.80;23.10;;;18.30;99.90;;;;;;5075288;28;19928;-81
2023/05/22 02:48:00;;;;;;;;;;;18.30;99.90;;;;;;5109710;28;20050;-81
2023/05/22 02:50:25;;;;;;;37.75;23.05;;;18.30;99.90;;;;;;5092919;28;19919;-80
2023/05/22 02:52:51;;;;;;;;;;;18.40;99.90;;;;;;5122010;28;20040;-80
2023/05/22 02:55:17;;;;;;;39.38;23.65;;;18.40;99.90;;;;;;5081187;28;19975;-81
2023/05/22 02:57:42;;;;;;;;;;;18.40;99.90;;;;;;5124106;28;20044;-81
2023/05/22 03:00:10;;;;;;;40.63;24.15;;;18.40;99.90;;;;;;5087514;28;19927;-81
2023/05/22 03:02:37;;;;;;;36.58;23.75;;;18.40;99.90;;;;;;5138090;27;20051;-81
2023/05/22 03:05:04;;;;;;;34.95;22.88;;;18.40;99.90;;;;;;5109663;28;20192;-79
2023/05/22 03:07:30;;;;;;;37.40;23.30;;;18.40;99.90;;;;;;5126549;28;20047;-81
2023/05/22 03:09:56;;;;;;;;;;;18.40;99.90;;;;;;5144626;27;20047;-80
2023/05/22 03:12:22;;;;;;;36.25;22.73;;;18.40;99.90;;;;;;5092325;28;19920;-80
2023/05/22 03:14:47;;;;;;;;;;;18.40;99.90;;;;;;5092605;28;20114;-81
2023/05/22 03:17:13;;;;;;;35.28;22.30;;;18.40;99.90;;;;;;5107865;28;19927;-80
2023/05/22 03:19:38;;;;;;;;;;;18.40;99.90;;;;;;5090651;28;20048;-80
2023/05/22 03:22:05;;;;;;;39.13;23.73;;;18.30;99.90;;;;;;5098581;28;19930;-80
2023/05/22 03:24:31;;;;;;;37.58;24.20;;;18.30;99.90;;;;;;5094819;28;20051;-81
2023/05/22 03:26:57;;;;;;;;;;;18.30;99.90;;;;;;5112482;28;20599;-80
2023/05/22 03:29:23;;;;;;;35.87;24.30;;;18.30;99.90;;;;;;5102845;28;19924;-80
2023/05/22 03:31:48;;;;;;;;;;;18.30;99.90;;;;;;5112459;28;20384;-80
2023/05/22 03:34:15;;;;;;;35.90;24.67;;;18.30;99.90;;;;;;5112056;28;20000;-80
2023/05/22 03:36:41;;;;;;;34.50;23.92;;;18.30;99.90;;;;;;5129952;27;20059;-80
2023/05/22 03:39:06;;;;;;;;;;;18.30;99.90;;;;;;5128265;27;20385;-79
2023/05/22 03:41:32;;;;;;;36.47;23.77;;;18.30;99.90;;;;;;5095968;28;19931;-81
2023/05/22 03:43:58;;;;;;;;;;;18.30;99.90;;;;;;5112346;28;20130;-80
2023/05/22 03:46:23;;;;;;;33.60;22.02;;;18.30;99.90;;;;;;5086260;28;19927;-80
2023/05/22 03:48:49;;;;;;;;;;;18.30;99.90;;;;;;5126662;27;20512;-80
2023/05/22 03:51:15;;;;;;;35.38;23.33;;;18.20;99.90;;;;;;5094058;28;19919;-80
2023/05/22 03:53:41;;;;;;;;;;;18.20;99.90;;;;;;5112921;28;20048;-80
2023/05/22 03:56:06;;;;;;;35.63;24.00;;;18.10;99.90;;;;;;5113009;28;19923;-80
2023/05/22 03:58:32;;;;;;;;;;;18.10;99.90;;;;;;5094977;28;20040;-80
2023/05/22 04:00:59;;;;;;;34.20;22.27;;;18.10;99.90;;;;;;5094633;28;19919;-80
2023/05/22 04:03:25;;;;;;;36.42;24.73;;;18.10;99.90;;;;;;5146243;27;20092;-80
2023/05/22 04:05:51;;;;;;;35.55;24.23;;;18.10;99.90;;;;;;5129583;27;20043;-80
2023/05/22 04:08:17;;;;;;;;;;;18.10;99.90;;;;;;5103815;28;20078;-80
2023/05/22 04:10:45;;;;;;;35.60;24.02;;;18.10;99.90;;;;;;5112491;28;19969;-80
2023/05/22 04:13:15;;;;;;;35.47;24.65;;;18.00;99.90;;;;;;5092833;28;20055;-79
2023/05/22 04:15:44;;;;;;;38.67;24.17;;;18.00;99.90;;;;;;5091247;28;20055;-81
2023/05/22 04:18:10;;;;;;;39.78;26.50;;;18.00;99.90;;;;;;5125237;27;20048;-79
2023/05/22 04:20:36;;;;;;;37.42;25.60;;;18.00;99.90;;;;;;5125782;27;20058;-80
2023/05/22 04:23:02;;;;;;;;;;;18.00;99.90;;;;;;5109665;28;20095;-80
2023/05/22 04:25:28;;;;;;;37.17;24.58;;;18.00;99.90;;;;;;5091417;28;19924;-80
2023/05/22 04:27:54;;;;;;;36.22;25.15;;;18.00;99.90;;;;;;5125702;27;20058;-80
2023/05/22 04:30:21;;;;;;;;;;;18.00;99.90;;;;;;5107740;28;20040;-79
2023/05/22 04:32:47;;;;;;;36.97;24.17;;;18.00;99.90;;;;;;5095646;28;19973;-80
2023/05/22 04:35:17;;;;;;;;;;;18.00;99.90;;;;;;5127798;27;20048;-79
2023/05/22 04:37:44;;;;;;;34.80;24.58;;;18.00;99.90;;;;;;5111843;28;20014;-80
2023/05/22 04:40:11;;;;;;;34.58;24.20;;;18.00;99.90;;;;;;5100234;28;20115;-80
2023/05/22 04:42:37;;;;;;;38.88;25.17;;;18.00;99.90;;;;;;5107981;27;20653;-80
2023/05/22 04:45:04;;;;;;;40.13;25.75;;;18.00;99.90;;;;;;5107910;27;20059;-80
2023/05/22 04:47:30;;;;;;;35.25;24.20;;;18.00;99.90;;;;;;5107525;28;20062;-80
2023/05/22 04:49:59;;;;;;;;;;;18.00;99.90;;;;;;5075356;28;20044;-80
2023/05/22 04:52:25;;;;;;;33.83;22.95;;;18.00;99.90;;;;;;5093779;28;19961;-80
2023/05/22 04:54:51;;;;;;;34.80;23.73;;;18.00;99.90;;;;;;5111783;28;20055;-80
2023/05/22 04:57:18;;;;;;;;;;;18.00;99.90;;;;;;5111383;28;20093;-79
2023/05/22 04:59:44;;;;;;;37.13;23.48;;;18.00;99.90;;;;;;5110401;28;19942;-80
2023/05/22 05:02:10;;;;;;;36.88;23.38;;;18.00;99.90;;;;;;5126215;27;20047;-80
2023/05/22 05:04:36;;;;;;;32.75;23.77;;;18.00;99.90;;;;;;5110533;28;20051;-80
2023/05/22 05:07:02;;;;;;;;;;;18.00;99.90;;;;;;5102168;28;20092;-80
2023/05/22 05:09:28;;;;;;;36.88;22.80;;;18.00;99.90;;;;;;5091054;28;20062;-80
2023/05/22 05:11:54;;;;;;;;;;;18.00;99.90;;;;;;5125551;27;20126;-80
2023/05/22 05:14:20;;;;;;;32.53;22.60;;;18.00;99.90;;;;;;5108780;28;20365;-80
2023/05/22 05:16:46;;;;;;;;;;;18.00;99.90;;;;;;5111983;28;20051;-80
2023/05/22 05:19:12;;;;;;;32.63;21.38;;;18.00;99.90;;;;;;5110960;28;19968;-80
2023/05/22 05:21:38;;;;;;;;;;;18.00;99.90;;;;;;5128146;27;20047;-80
2023/05/22 05:24:05;;;;;;;32.30;21.92;;;18.10;99.90;;;;;;5111224;28;20386;-80
2023/05/22 05:26:31;;;;;;;33.45;21.77;;;18.10;99.90;;;;;;5127952;27;20060;-80
2023/05/22 05:28:56;;;;;;;;;;;18.00;99.90;;;;;;5110741;28;20181;-80
2023/05/22 05:31:22;;;;;;;33.75;20.80;;;18.10;99.90;;;;;;5107877;28;20403;-81
2023/05/22 05:33:48;;;;;;;;;;;18.10;99.90;;;;;;5124677;27;20051;-80
2023/05/22 05:36:15;;;;;;;31.05;20.55;;;18.10;99.90;;;;;;5144519;27;20060;-80
2023/05/22 05:38:41;;;;;;;30.00;21.13;;;18.10;99.90;;;;;;5110408;28;20131;-81
2023/05/22 05:41:06;;;;;;;;;;;18.10;99.90;;;;;;5128625;27;20106;-80
2023/05/22 05:43:32;;;;;;;28.35;20.50;;;18.10;99.90;;;;;;5110344;28;19953;-81
2023/05/22 05:45:58;;;;;;;;;;;18.10;99.90;;;;;;5110354;28;20047;-81
2023/05/22 05:48:23;;;;;;;31.92;20.17;;;18.10;99.90;;;;;;5109417;28;19969;-80
2023/05/22 05:50:49;;;;;;;;;;;18.10;99.90;;;;;;5127801;27;20492;-80
2023/05/22 05:53:15;;;;;;;27.40;19.67;;;18.20;99.90;;;;;;5108977;28;20442;-80
2023/05/22 05:55:40;;;;;;;;;;;18.20;99.90;;;;;;5104382;28;20075;-80
2023/05/22 05:58:06;;;;;;;28.00;18.92;;;18.20;99.90;;;;;;5093178;28;19953;-80
2023/05/22 06:00:31;;;;;;;;;;;18.20;99.90;;;;;;5108982;28;20048;-80
2023/05/22 06:02:58;;;;;;;28.45;19.65;;;18.30;99.90;;;;;;5092822;28;19927;-80
2023/05/22 06:05:25;;;;;;;29.73;18.80;;;18.30;99.90;;;;;;5144057;27;20183;-79
2023/05/22 06:07:51;;;;;;;25.35;18.48;;;18.40;99.90;;;;;;5144137;27;20128;-79
2023/05/22 06:10:17;;;;;;;;;;;18.30;99.90;;;;;;5110196;27;20105;-80
2023/05/22 06:12:42;;;;;;;31.30;18.75;;;18.40;99.90;;;;;;5135874;27;19919;-81
2023/05/22 06:15:08;;;;;;;;;;;18.40;99.90;;;;;;5089277;28;20048;-80
2023/05/22 06:17:36;;;;;;;30.23;18.98;;;18.40;99.90;;;;;;5123725;27;19931;-80
2023/05/22 06:20:05;;;;;;;23.67;17.95;;;18.40;99.90;;;;;;5076016;28;20043;-81
2023/05/22 06:22:31;;;;;;;27.63;17.80;;;18.40;99.90;;;;;;5110663;28;20051;-78
2023/05/22 06:24:57;;;;;;;;;;;18.50;99.90;;;;;;5093672;28;20112;-79
2023/05/22 06:27:23;;;;;;;25.05;18.38;;;18.50;99.90;;;;;;5075852;28;19970;-78
2023/05/22 06:29:52;;;;;;;25.67;18.52;;;18.50;99.90;;;;;;5092428;28;20039;-76
2023/05/22 06:32:18;;;;;;;28.73;17.50;;;18.60;99.90;;;;;;5092699;28;20488;-76
2023/05/22 06:34:46;;;;;;;;;;;18.60;99.90;;;;;;5108362;28;20563;-76
2023/05/22 06:37:11;;;;;;;26.25;18.48;;;18.70;99.90;;;;;;5109804;28;19920;-77
2023/05/22 06:39:37;;;;;;;;;;;18.70;99.90;;;;;;5106792;28;20104;-77
2023/05/22 06:42:03;;;;;;;27.05;17.50;;;18.80;99.90;;;;;;5135153;27;19927;-76
2023/05/22 06:44:29;;;;;;;;;;;18.80;99.90;;;;;;5122068;28;20443;-76
2023/05/22 06:46:55;;;;;;;29.05;18.23;;;18.90;99.90;;;;;;5109513;28;19969;-77
2023/05/22 06:49:20;;;;;;;;;;;19.00;99.90;;;;;;5109363;28;20503;-77
2023/05/22 06:51:46;;;;;;;25.50;17.77;;;19.00;99.90;;;;;;5088585;28;20365;-76
2023/05/22 06:54:12;;;;;;;;;;;19.10;99.90;;;;;;5091271;28;20131;-76
2023/05/22 06:56:39;;;;;;;25.17;17.43;;;19.10;99.90;;;;;;5105881;28;19971;-78
2023/05/22 06:59:05;;;;;;;23.17;17.42;;;19.20;99.90;;;;;;5131091;27;20488;-78
2023/05/22 07:01:30;;;;;;;;;;;19.20;99.90;;;;;;5092802;28;20088;-77
2023/05/22 07:04:00;;;;;;;24.27;16.90;;;19.30;99.90;;;;;;5092973;28;19931;-77
2023/05/22 07:06:26;;;;;;;21.60;16.40;;;19.30;99.90;;;;;;5092767;28;20135;-77
2023/05/22 07:08:52;;;;;;;26.90;17.25;;;19.30;99.90;;;;;;5093302;28;20048;-76
2023/05/22 07:11:18;;;;;;;;;;;19.40;99.90;;;;;;5112839;28;20531;-77
2023/05/22 07:13:44;;;;;;;22.80;17.50;;;19.40;99.90;;;;;;5112795;28;19951;-77
2023/05/22 07:16:09;;;;;;;23.73;16.17;;;19.40;99.90;;;;;;5110983;28;20040;-77
2023/05/22 07:18:35;;;;;;;;;;;19.40;99.90;;;;;;5147356;27;20040;-73
2023/05/22 07:21:01;;;;;;;23.95;17.77;;;19.50;99.90;;;;;;5113195;28;19997;-75
2023/05/22 07:23:27;;;;;;;;;;;19.50;99.90;;;;;;5113539;28;20058;-74
2023/05/22 07:25:52;;;;;;;25.48;16.52;;;19.60;99.90;;;;;;5113364;28;19924;-74
2023/05/22 07:28:18;;;;;;;23.15;17.67;;;19.60;99.90;;;;;;5114165;28;20055;-74
2023/05/22 07:30:44;;;;;;;;;;;19.70;99.90;;;;;;5113432;28;20131;-73
2023/05/22 07:33:10;;;;;;;25.85;16.95;;;19.80;99.90;;;;;;5103042;28;19920;-68
2023/05/22 07:35:36;;;;;;;26.05;17.02;;;19.90;99.90;;;;;;5103719;28;20048;-68
2023/05/22 07:38:02;;;;;;;;;;;19.90;99.90;;;;;;5093201;28;20044;-68
2023/05/22 07:40:28;;;;;;;26.98;17.13;;;20.00;99.90;;;;;;5108392;28;19927;-68
2023/05/22 07:42:54;;;;;;;25.98;18.27;;;20.00;99.90;;;;;;5113352;27;20048;-68
2023/05/22 07:45:19;;;;;;;;;;;20.10;99.90;;;;;;5106518;28;20040;-68
2023/05/22 07:47:45;;;;;;;27.30;17.70;;;20.10;99.90;;;;;;5100399;28;20771;-68
2023/05/22 07:50:11;;;;;;;;;;;20.10;99.90;;;;;;5112063;28;20048;-68
2023/05/22 07:52:37;;;;;;;26.25;17.13;;;20.20;99.90;;;;;;5104587;27;19928;-75
2023/05/22 07:55:02;;;;;;;28.25;18.92;;;20.20;99.90;;;;;;5103961;28;20467;-71
2023/05/22 07:57:28;;;;;;;25.05;18.58;;;20.20;99.90;;;;;;5129060;27;20044;-81
2023/05/22 07:59:54;;;;;;;;;;;20.30;99.90;;;;;;5091579;28;20127;-79
2023/05/22 08:02:21;;;;;;;23.77;17.48;;;20.30;99.90;;;;;;5103751;28;19920;-81
2023/05/22 08:04:47;;;;;;;28.33;18.15;;;20.40;99.90;;;;;;5111717;28;20320;-78
2023/05/22 08:07:13;;;;;;;21.83;16.83;;;20.40;99.90;;;;;;5095186;28;20054;-80
2023/05/22 08:09:38;;;;;;;;;;;20.40;99.90;;;;;;5111465;28;20047;-79
2023/05/22 08:12:05;;;;;;;28.25;17.10;;;20.40;99.90;;;;;;5111892;28;20467;-71
2023/05/22 08:14:31;;;;;;;27.33;17.17;;;20.40;99.90;;;;;;5143218;27;20059;-75
2023/05/22 08:16:57;;;;;;;;;;;20.40;99.90;;;;;;5109391;28;20052;-70
2023/05/22 08:19:24;;;;;;;26.35;17.25;;;20.40;99.90;;;;;;5095469;28;20372;-66
2023/05/22 08:21:51;;;;;;;23.52;16.20;;;20.40;99.90;;;;;;5135964;27;20055;-77
2023/05/22 08:24:17;;;;;;;22.67;16.60;;;20.40;99.90;;;;;;5091484;28;20484;-64
2023/05/22 08:26:43;;;;;;;;;;;20.40;99.90;;;;;;5102317;28;20092;-64
2023/05/22 08:29:09;;;;;;;22.50;16.40;;;20.40;99.90;;;;;;5111120;28;19920;-64
2023/05/22 08:31:34;;;;;;;;;;;20.40;99.90;;;;;;5112799;28;20046;-70
2023/05/22 08:34:05;;;;;;;32.60;15.55;;;20.40;99.90;;;;;;5110005;28;19920;-74
2023/05/22 08:36:32;;;;;;;24.95;15.50;;;20.50;99.90;;;;;;5099288;28;20047;-74
2023/05/22 08:39:00;;;;;;;25.90;16.00;;;20.60;99.90;;;;;;5112156;27;20063;-73
2023/05/22 08:41:26;;;;;;;22.88;15.73;;;20.60;99.90;;;;;;5090640;28;20146;-73
2023/05/22 08:43:51;;;;;;;24.73;15.55;;;20.70;99.90;;;;;;5104929;28;20040;-69
2023/05/22 08:46:18;;;;;;;;;;;20.80;99.90;;;;;;5111475;28;20124;-71
2023/05/22 08:48:44;;;;;;;25.70;15.23;;;20.80;99.90;;;;;;5111700;28;19959;-73
2023/05/22 08:51:13;;;;;;;19.13;13.48;;;20.90;99.90;;;;;;5112236;28;20054;-67
2023/05/22 08:53:41;;;;;;;23.83;15.50;;;20.90;99.90;;;;;;5111455;28;20094;-69
2023/05/22 08:56:07;;;;;;;20.45;14.27;;;21.00;99.90;;;;;;5143952;27;20119;-68
2023/05/22 08:58:35;;;;;;;20.52;14.98;;;21.10;99.90;;;;;;5112631;28;20040;-74
2023/05/22 09:01:02;;;;;;;21.05;13.98;;;21.20;99.90;;;;;;5109120;28;20056;-70
2023/05/22 09:03:31;;;;;;;21.63;15.10;;;21.20;99.90;;;;;;5093236;28;20082;-67
2023/05/22 09:06:01;;;;;;;35.60;15.50;;;21.20;99.90;;;;;;5111823;28;20087;-70
2023/05/22 09:08:29;;;;;;;21.00;14.05;;;21.20;99.90;;;;;;5112257;28;20043;-67
2023/05/22 09:10:55;;;;;;;20.00;14.60;;;21.40;99.90;;;;;;5110647;28;20040;-72
2023/05/22 09:13:26;;;;;;;21.10;14.02;;;21.50;99.90;;;;;;5111454;28;20059;-73
2023/05/22 09:15:51;;;;;;;21.58;14.07;;;21.60;99.90;;;;;;5093128;28;20095;-73
2023/05/22 09:18:17;;;;;;;19.83;14.02;;;21.80;99.90;;;;;;5109176;28;20067;-73
2023/05/22 09:20:43;;;;;;;19.17;13.30;;;21.90;99.90;;;;;;5095074;28;20045;-72
2023/05/22 09:23:18;;;;;;;21.10;13.60;;;22.10;99.90;;;;;;5124823;27;20051;-70
2023/05/22 09:25:45;;;;;;;20.57;13.70;;;22.10;99.90;;;;;;5102583;28;20055;-72
2023/05/22 09:28:11;;;;;;;25.55;13.32;;;22.20;99.90;;;;;;5093346;28;20040;-72
2023/05/22 09:30:37;;;;;;;18.20;13.48;;;22.30;99.90;;;;;;5090533;28;20052;-73
2023/05/22 09:33:03;;;;;;;20.02;13.93;;;22.40;99.90;;;;;;5091311;28;20055;-72
2023/05/22 09:35:31;;;;;;;20.15;13.25;;;22.40;99.90;;;;;;5124522;27;20048;-73
2023/05/22 09:37:57;;;;;;;19.70;12.98;;;22.40;99.90;;;;;;5092262;28;20048;-69
2023/05/22 09:40:25;;;;;;;16.77;12.02;;;22.50;99.90;;;;;;5109978;28;20070;-68
2023/05/22 09:42:51;;;;;;;27.13;15.13;;;22.50;99.90;;;;;;5096629;28;20141;-69
2023/05/22 09:45:21;;;;;;;30.40;16.20;;;22.50;99.90;;;;;;5097901;28;20093;-69
2023/05/22 09:47:50;;;;;;;21.20;12.20;;;22.50;99.90;;;;;;5109404;28;20206;-68
2023/05/22 09:50:17;;;;;;;22.02;12.48;;;22.50;99.90;;;;;;5112096;28;20130;-72
2023/05/22 09:52:45;;;;;;;20.30;13.00;;;22.50;99.90;;;;;;5111041;28;20484;-73
2023/05/22 09:55:12;;;;;;;24.98;13.65;;;22.40;99.90;;;;;;5110551;28;20051;-70
2023/05/22 09:57:43;;;;;;;19.15;12.57;;;22.40;99.90;;;;;;5111474;28;20051;-75
2023/05/22 10:00:16;;;;;;;26.10;15.05;;;22.40;99.90;;;;;;5110528;28;20066;-71
2023/05/22 10:02:45;;;;;;;19.48;12.73;;;22.50;99.90;;;;;;5110294;28;20101;-74
2023/05/22 10:05:30;;;;;;;16.63;12.32;;;22.50;99.90;;;;;;5111418;28;20052;-73
2023/05/22 10:08:06;;;;;;;21.17;13.10;;;22.50;99.90;;;;;;5109010;28;20048;-77
2023/05/22 10:10:32;;;;;;;20.53;12.73;;;22.60;99.90;;;;;;5110450;28;20454;-79
2023/05/22 10:13:08;;;;;;;21.00;13.20;;;22.60;99.90;;;;;;5093090;28;20680;-79
2023/05/22 10:15:34;;;;;;;17.40;12.35;;;22.70;99.90;;;;;;5110512;28;20054;-79
2023/05/22 10:18:00;;;;;;;18.55;13.10;;;22.70;99.90;;;;;;5108344;28;20043;-75
2023/05/22 10:20:27;;;;;;;21.98;13.23;;;22.80;99.90;;;;;;5109859;28;20040;-66
2023/05/22 10:22:54;;;;;;;18.85;12.55;;;22.80;99.90;;;;;;5110835;28;20054;-65
2023/05/22 10:25:21;;;;;;;18.98;13.02;;;22.90;99.90;;;;;;5111194;28;20108;-65
2023/05/22 10:27:47;;;;;;;18.88;13.05;;;23.10;99.90;;;;;;5110621;28;20139;-64
2023/05/22 10:30:31;;;;;;;17.75;11.95;;;23.20;99.90;;;;;;5091969;28;20055;-65
2023/05/22 10:33:15;;;;;;;23.70;12.65;;;23.30;99.90;;;;;;5106574;28;20043;-69
2023/05/22 10:36:05;;;;;;;16.15;12.15;;;23.40;99.90;;;;;;5090319;28;20624;-70
2023/05/22 10:38:49;;;;;;;20.70;12.48;;;23.60;99.90;;;;;;5105367;28;20165;-69
2023/05/22 10:41:16;;;;;;;21.63;13.10;;;23.70;99.90;;;;;;5108037;28;20549;-69
2023/05/22 10:43:42;;;;;;;21.55;12.52;;;23.90;99.90;;;;;;5089837;28;20052;-74
2023/05/22 10:46:10;;;;;;;20.08;12.35;;;24.10;99.90;;;;;;5090267;28;20048;-70
2023/05/22 10:48:37;;;;;;;23.30;13.57;;;24.30;99.90;;;;;;5134715;27;20047;-72
2023/05/22 10:51:03;;;;;;;18.85;12.82;;;24.50;99.90;;;;;;5143599;27;20130;-72
2023/05/22 10:53:31;;;;;;;20.33;12.57;;;24.50;99.90;;;;;;5111121;28;20096;-70
2023/05/22 10:56:01;;;;;;;20.08;12.07;;;24.40;99.90;;;;;;5109961;28;20828;-71
2023/05/22 10:58:33;;;;;;;20.05;12.88;;;24.30;99.90;;;;;;5109002;28;20071;-70
2023/05/22 11:01:11;;;;;;;21.00;12.60;;;24.30;99.90;;;;;;5109075;28;20135;-74
2023/05/22 11:03:56;;;;;;;19.67;12.63;;;24.40;99.90;;;;;;5110493;28;20048;-79
2023/05/22 11:06:42;;;;;;;24.02;12.43;;;24.40;99.90;;;;;;5124859;27;20487;-73
2023/05/22 11:09:25;;;;;;;19.70;12.13;;;24.50;99.90;;;;;;5095234;28;20047;-73
2023/05/22 11:12:23;;;;;;;20.98;12.77;;;24.50;99.90;;;;;;5109160;28;20051;-67
2023/05/22 11:15:02;;;;;;;54.55;14.02;;;24.60;99.90;;;;;;5107630;28;20044;-69
2023/05/22 11:17:29;;;;;;;21.95;12.77;;;24.80;99.90;;;;;;5143265;27;20110;-70
2023/05/22 11:20:25;;;;;;;18.50;12.95;;;24.80;99.90;;;;;;5110025;28;20062;-69
2023/05/22 11:23:05;;;;;;;19.40;12.32;;;24.90;99.90;;;;;;5109969;28;20044;-67
2023/05/22 11:25:33;;;;;;;20.45;13.20;;;25.00;99.90;;;;;;5110491;28;20083;-69
2023/05/22 11:28:02;;;;;;;24.30;13.07;;;25.20;99.90;;;;;;5109951;28;20488;-71
2023/05/22 11:30:31;;;;;;;22.08;12.43;;;25.50;99.90;;;;;;5091277;28;20140;-70
2023/05/22 11:33:00;;;;;;;17.58;11.80;;;25.70;99.90;;;;;;5107207;28;20048;-70
2023/05/22 11:35:27;;;;;;;22.08;14.23;;;26.00;99.90;;;;;;5105821;28;20122;-69
2023/05/22 11:37:54;;;;;;;17.85;12.68;;;26.40;99.90;;;;;;5109776;28;20126;-70
2023/05/22 11:40:23;;;;;;;18.00;12.48;;;26.80;99.90;;;;;;5109683;28;20048;-70
2023/05/22 11:42:49;;;;;;;19.83;12.63;;;27.30;99.90;;;;;;5109451;28;20082;-71
2023/05/22 11:45:16;;;;;;;20.17;12.48;;;27.80;99.90;;;;;;5106628;28;20437;-70
2023/05/22 11:47:43;;;;;;;17.90;12.00;;;28.30;99.90;;;;;;5111570;28;20103;-72
2023/05/22 11:50:10;;;;;;;18.48;11.88;;;28.70;99.90;;;;;;5111936;28;20052;-72
2023/05/22 11:52:38;;;;;;;15.93;11.13;;;29.20;99.90;;;;;;5113292;28;20040;-72
2023/05/22 11:55:04;;;;;;;18.67;11.25;;;29.60;98.80;;;;;;5113505;28;20087;-71
2023/05/22 11:57:31;;;;;;;18.63;11.07;;;30.00;97.10;;;;;;5115562;27;20088;-88
2023/05/22 11:59:57;;;;;;;15.48;10.00;;;30.60;94.20;;;;;;5111369;28;20050;-85
2023/05/22 12:02:23;;;;;;;16.40;10.85;;;32.00;90.50;;;;;;5111641;28;20104;-86
2023/05/22 12:04:56;;;;;;;13.27;9.75;;;33.30;80.40;;;;;;5091609;28;20052;-85
2023/05/22 12:07:23;;;;;;;15.70;9.63;;;34.40;73.20;;;;;;5118080;27;20070;-86
2023/05/22 12:09:49;;;;;;;12.75;8.82;;;35.10;68.80;;;;;;5094198;28;20048;-83
2023/05/22 12:12:15;;;;;;;11.35;9.18;;;36.00;65.20;;;;;;5111870;28;20173;-86
2023/05/22 12:14:44;;;;;;;13.18;10.23;;;36.70;62.10;;;;;;5128643;27;20044;-86
2023/05/22 12:17:15;;;;;;;14.80;9.93;;;37.00;58.60;;;;;;5103750;28;20044;-84
2023/05/22 12:19:42;;;;;;;16.73;9.65;;;37.00;58.20;;;;;;5140471;27;20403;-85
2023/05/22 12:22:10;;;;;;;13.55;9.20;;;37.30;56.90;;;;;;5127592;27;20673;-85
2023/05/22 12:24:47;;;;;;;14.73;9.50;;;37.70;55.40;;;;;;5098564;28;20048;-86
2023/05/22 12:27:13;;;;;;;14.73;9.27;;;38.10;54.70;;;;;;5104488;28;20040;-77
2023/05/22 12:29:40;;;;;;;13.25;9.40;;;38.30;52.50;;;;;;5103218;28;20039;-79
2023/05/22 12:32:11;;;;;;;15.48;9.88;;;38.20;51.50;;;;;;5106196;28;20484;-78
2023/05/22 12:34:57;;;;;;;16.60;10.00;;;38.50;51.00;;;;;;5107417;28;20494;-80
2023/05/22 12:37:27;;;;;;;12.07;8.80;;;39.00;51.70;;;;;;5142896;27;20051;-83
2023/05/22 12:39:57;;;;;;;15.23;9.32;;;39.50;51.30;;;;;;5108151;28;20043;-82
2023/05/22 12:42:24;;;;;;;11.90;8.65;;;39.90;50.40;;;;;;5115977;27;20039;-81
2023/05/22 12:44:52;;;;;;;11.85;8.90;;;40.40;50.00;;;;;;5106095;27;20412;-84
2023/05/22 12:47:18;;;;;;;12.75;9.35;;;40.60;49.70;;;;;;5099830;27;20120;-80
2023/05/22 12:49:44;;;;;;;12.00;8.60;;;40.80;48.90;;;;;;5102431;28;20150;-81
2023/05/22 12:52:09;;;;;;;10.80;8.70;;;41.00;47.40;;;;;;5100569;28;20051;-80